createdAt,value
2023-05-17T00:00:20.868Z,100670.41
2023-05-17T00:00:52.297Z,100667.22
2023-05-17T00:01:23.777Z,100667.22
2023-05-17T00:01:55.214Z,100673.13
2023-05-17T00:02:26.697Z,100675.03
2023-05-17T00:02:58.188Z,100671.75
2023-05-17T00:03:29.640Z,100675.28
2023-05-17T00:04:01.225Z,100676.94
2023-05-17T00:04:32.870Z,100669.84
2023-05-17T00:05:04.360Z,100675.56
2023-05-17T00:05:35.816Z,100675.56
2023-05-17T00:06:07.318Z,100675.28
2023-05-17T00:06:38.850Z,100677.75
2023-05-17T00:07:10.226Z,100674.78
2023-05-17T00:07:41.625Z,100681.28
2023-05-17T00:08:13.078Z,100676.66
2023-05-17T00:08:44.519Z,100674.78
2023-05-17T00:09:15.890Z,100681.28
2023-05-17T00:09:47.363Z,100675.59
2023-05-17T00:10:18.747Z,100676.38
2023-05-17T00:10:50.206Z,100673.97
2023-05-17T00:11:21.648Z,100674.72
2023-05-17T00:11:53.071Z,100674.47
2023-05-17T00:12:24.535Z,100675.84
2023-05-17T00:12:55.958Z,100681.63
2023-05-17T00:13:27.564Z,100672.41
2023-05-17T00:13:58.960Z,100673.97
2023-05-17T00:14:30.401Z,100671.75
2023-05-17T00:15:01.857Z,100672.06
2023-05-17T00:15:33.301Z,100674.72
2023-05-17T00:16:04.808Z,100675.94
2023-05-17T00:16:36.281Z,100677.50
2023-05-17T00:17:07.702Z,100673.66
2023-05-17T00:17:39.362Z,100683.19
2023-05-17T00:18:10.922Z,100673.13
2023-05-17T00:18:42.492Z,100679.41
2023-05-17T00:19:14.145Z,100675.28
2023-05-17T00:19:45.757Z,100681.94
2023-05-17T00:20:17.236Z,100679.22
2023-05-17T00:20:48.611Z,100680.03
2023-05-17T00:21:20.068Z,100677.75
2023-05-17T00:21:51.439Z,100680.53
2023-05-17T00:22:22.883Z,100679.72
2023-05-17T00:22:54.318Z,100675.13
2023-05-17T00:23:25.759Z,100680.84
2023-05-17T00:23:57.193Z,100677.25
2023-05-17T00:24:28.648Z,100681.38
2023-05-17T00:25:01.465Z,100677.56
2023-05-17T00:25:32.892Z,100684.09
2023-05-17T00:26:04.432Z,100676.19
2023-05-17T00:26:35.922Z,100678.41
2023-05-17T00:27:07.409Z,100682.66
2023-05-17T00:27:38.802Z,100675.03
2023-05-17T00:28:10.196Z,100674.72
2023-05-17T00:28:41.639Z,100675.84
2023-05-17T00:29:13.045Z,100683.19
2023-05-17T00:29:44.483Z,100673.69
2023-05-17T00:30:15.927Z,100674.78
2023-05-17T00:30:47.373Z,100672.88
2023-05-17T00:31:18.801Z,100678.31
2023-05-17T00:31:50.270Z,100675.38
2023-05-17T00:32:21.725Z,100675.38
2023-05-17T00:32:53.177Z,100679.97
2023-05-17T00:33:24.654Z,100672.66
2023-05-17T00:33:56.089Z,100673.69
2023-05-17T00:34:27.619Z,100672.31
2023-05-17T00:34:59.087Z,100676.66
2023-05-17T00:35:30.811Z,100670.50
2023-05-17T00:36:02.381Z,100671.31
2023-05-17T00:36:33.811Z,100680.81
2023-05-17T00:37:05.290Z,100685.41
2023-05-17T00:37:36.699Z,100672.56
2023-05-17T00:38:08.186Z,100674.22
2023-05-17T00:38:39.599Z,100679.13
2023-05-17T00:39:11.104Z,100675.84
2023-05-17T00:39:42.619Z,100675.59
2023-05-17T00:40:14.144Z,100676.66
2023-05-17T00:40:45.562Z,100676.94
2023-05-17T00:41:16.987Z,100678.91
2023-05-17T00:41:48.349Z,100679.41
2023-05-17T00:42:19.777Z,100678.00
2023-05-17T00:42:51.191Z,100674.47
2023-05-17T00:43:22.629Z,100678.56
2023-05-17T00:43:54.106Z,100669.69
2023-05-17T00:44:25.578Z,100667.78
2023-05-17T00:44:57.082Z,100677.25
2023-05-17T00:45:28.849Z,100674.28
2023-05-17T00:46:00.485Z,100678.66
2023-05-17T00:46:31.874Z,100673.97
2023-05-17T00:47:03.332Z,100674.28
2023-05-17T00:47:34.764Z,100677.56
2023-05-17T00:48:06.383Z,100679.13
2023-05-17T00:48:38.039Z,100679.41
2023-05-17T00:49:09.637Z,100682.44
2023-05-17T00:49:41.097Z,100682.66
2023-05-17T00:50:12.512Z,100679.41
2023-05-17T00:50:43.967Z,100681.53
2023-05-17T00:51:15.391Z,100681.03
2023-05-17T00:51:46.866Z,100676.41
2023-05-17T00:52:18.331Z,100679.13
2023-05-17T00:52:49.713Z,100677.25
2023-05-17T00:53:21.134Z,100675.94
2023-05-17T00:53:52.527Z,100680.03
2023-05-17T00:54:24.020Z,100680.81
2023-05-17T00:54:55.478Z,100683.53
2023-05-17T00:55:27.142Z,100685.41
2023-05-17T00:55:58.714Z,100687.53
2023-05-17T00:56:30.271Z,100685.91
2023-05-17T00:57:01.735Z,100684.53
2023-05-17T00:57:33.179Z,100681.28
2023-05-17T00:58:04.666Z,100680.72
2023-05-17T00:58:36.147Z,100685.09
2023-05-17T00:59:07.561Z,100686.72
2023-05-17T00:59:39.006Z,100681.84
2023-05-17T01:00:10.469Z,100675.28
2023-05-17T01:00:41.885Z,100676.66
2023-05-17T01:01:13.288Z,100676.94
2023-05-17T01:01:44.744Z,100677.44
2023-05-17T01:02:16.165Z,100678.00
2023-05-17T01:02:47.686Z,100678.53
2023-05-17T01:03:19.224Z,100677.19
2023-05-17T01:03:50.856Z,100679.34
2023-05-17T01:04:22.400Z,100677.97
2023-05-17T01:04:53.962Z,100677.44
2023-05-17T01:05:25.483Z,100679.34
2023-05-17T01:05:56.927Z,100679.09
2023-05-17T01:06:28.400Z,100685.16
2023-05-17T01:06:59.794Z,100680.53
2023-05-17T01:07:31.198Z,100686.47
2023-05-17T01:08:02.678Z,100674.72
2023-05-17T01:08:34.116Z,100678.78
2023-05-17T01:09:05.503Z,100679.66
2023-05-17T01:09:37.010Z,100677.75
2023-05-17T01:10:08.440Z,100679.91
2023-05-17T01:10:39.884Z,100681.81
2023-05-17T01:11:11.353Z,100686.69
2023-05-17T01:11:42.773Z,100680.41
2023-05-17T01:12:14.186Z,100685.28
2023-05-17T01:12:45.606Z,100684.22
2023-05-17T01:13:17.012Z,100677.44
2023-05-17T01:13:48.448Z,100685.03
2023-05-17T01:14:19.865Z,100677.97
2023-05-17T01:14:51.307Z,100680.69
2023-05-17T01:15:22.749Z,100682.56
2023-05-17T01:15:54.184Z,100681.25
2023-05-17T01:16:25.648Z,100683.41
2023-05-17T01:16:57.034Z,100681.19
2023-05-17T01:17:28.511Z,100682.31
2023-05-17T01:18:00.045Z,100678.00
2023-05-17T01:18:31.746Z,100680.41
2023-05-17T01:19:03.400Z,100683.41
2023-05-17T01:19:34.975Z,100682.56
2023-05-17T01:20:06.655Z,100679.03
2023-05-17T01:20:38.473Z,100682.31
2023-05-17T01:21:09.962Z,100678.78
2023-05-17T01:21:41.469Z,100677.13
2023-05-17T01:22:12.905Z,100688.00
2023-05-17T01:22:44.423Z,100687.44
2023-05-17T01:23:15.877Z,100684.22
2023-05-17T01:23:47.313Z,100683.41
2023-05-17T01:24:18.750Z,100686.13
2023-05-17T01:24:50.209Z,100686.94
2023-05-17T01:25:21.676Z,100686.94
2023-05-17T01:25:53.146Z,100686.16
2023-05-17T01:26:24.665Z,100684.78
2023-05-17T01:26:56.203Z,100682.31
2023-05-17T01:27:27.755Z,100686.13
2023-05-17T01:27:59.165Z,100687.50
2023-05-17T01:28:30.622Z,100678.53
2023-05-17T01:29:02.034Z,100680.72
2023-05-17T01:29:33.445Z,100681.81
2023-05-17T01:30:04.855Z,100684.78
2023-05-17T01:30:39.216Z,100689.66
2023-05-17T01:31:10.623Z,100680.16
2023-05-17T01:31:42.092Z,100677.44
2023-05-17T01:32:13.546Z,100682.88
2023-05-17T01:32:45.043Z,100685.03
2023-05-17T01:33:16.677Z,100683.41
2023-05-17T01:33:48.533Z,100680.41
2023-05-17T01:34:20.138Z,100686.94
2023-05-17T01:34:51.556Z,100677.72
2023-05-17T01:35:22.968Z,100682.88
2023-05-17T01:35:54.376Z,100684.78
2023-05-17T01:36:25.757Z,100679.59
2023-05-17T01:36:57.187Z,100684.22
2023-05-17T01:37:28.670Z,100683.13
2023-05-17T01:38:00.075Z,100686.69
2023-05-17T01:38:31.541Z,100676.63
2023-05-17T01:39:02.926Z,100683.41
2023-05-17T01:39:34.336Z,100689.91
2023-05-17T01:40:05.758Z,100682.84
2023-05-17T01:40:37.204Z,100685.56
2023-05-17T01:41:08.685Z,100686.94
2023-05-17T01:41:40.112Z,100691.59
2023-05-17T01:42:11.541Z,100685.59
2023-05-17T01:42:43.158Z,100691.28
2023-05-17T01:43:14.621Z,100683.69
2023-05-17T01:43:46.116Z,100685.03
2023-05-17T01:44:17.606Z,100695.09
2023-05-17T01:44:49.054Z,100690.78
2023-05-17T01:45:20.465Z,100685.03
2023-05-17T01:45:51.856Z,100691.56
2023-05-17T01:46:23.284Z,100690.22
2023-05-17T01:46:54.823Z,100689.91
2023-05-17T01:47:26.200Z,100694.28
2023-05-17T01:47:57.724Z,100690.47
2023-05-17T01:48:29.265Z,100695.34
2023-05-17T01:49:00.920Z,100692.13
2023-05-17T01:49:32.623Z,100694.28
2023-05-17T01:50:04.038Z,100689.66
2023-05-17T01:50:35.483Z,100690.47
2023-05-17T01:51:06.916Z,100692.63
2023-05-17T01:51:38.351Z,100693.72
2023-05-17T01:52:09.784Z,100691.28
2023-05-17T01:52:41.304Z,100688.56
2023-05-17T01:53:12.801Z,100689.13
2023-05-17T01:53:44.262Z,100692.94
2023-05-17T01:54:15.647Z,100691.84
2023-05-17T01:54:47.121Z,100696.47
2023-05-17T01:55:18.511Z,100693.75
2023-05-17T01:55:49.952Z,100696.16
2023-05-17T01:56:21.408Z,100700.28
2023-05-17T01:56:52.824Z,100698.38
2023-05-17T01:57:24.311Z,100700.84
2023-05-17T01:57:55.712Z,100694.63
2023-05-17T01:58:27.277Z,100694.63
2023-05-17T01:58:58.688Z,100695.66
2023-05-17T01:59:30.095Z,100689.97
2023-05-17T02:00:01.514Z,100696.47
2023-05-17T02:00:32.916Z,100699.44
2023-05-17T02:01:04.494Z,100696.22
2023-05-17T02:01:35.858Z,100692.94
2023-05-17T02:02:07.256Z,100695.91
2023-05-17T02:02:38.757Z,100694.28
2023-05-17T02:03:10.169Z,100697.56
2023-05-17T02:03:41.663Z,100697.81
2023-05-17T02:04:13.262Z,100695.09
2023-05-17T02:04:44.793Z,100689.91
2023-05-17T02:05:16.327Z,100691.28
2023-05-17T02:05:47.789Z,100698.06
2023-05-17T02:06:19.238Z,100698.88
2023-05-17T02:06:50.624Z,100693.19
2023-05-17T02:07:21.993Z,100698.88
2023-05-17T02:07:53.370Z,100695.34
2023-05-17T02:08:24.780Z,100697.00
2023-05-17T02:08:56.315Z,100707.03
2023-05-17T02:09:27.736Z,100697.50
2023-05-17T02:09:59.129Z,100705.09
2023-05-17T02:10:30.562Z,100701.56
2023-05-17T02:11:01.968Z,100695.84
2023-05-17T02:11:33.465Z,100706.16
2023-05-17T02:12:04.888Z,100703.50
2023-05-17T02:12:36.322Z,100699.72
2023-05-17T02:13:07.808Z,100699.19
2023-05-17T02:13:39.256Z,100709.50
2023-05-17T02:14:10.709Z,100701.09
2023-05-17T02:14:42.160Z,100713.03
2023-05-17T02:15:13.560Z,100704.31
2023-05-17T02:15:45.139Z,100706.78
2023-05-17T02:16:16.539Z,100703.81
2023-05-17T02:16:47.939Z,100710.56
2023-05-17T02:17:19.396Z,100708.69
2023-05-17T02:17:50.937Z,100707.84
2023-05-17T02:18:22.859Z,100714.13
2023-05-17T02:18:54.590Z,100710.84
2023-05-17T02:19:26.136Z,100711.91
2023-05-17T02:19:57.574Z,100712.97
2023-05-17T02:20:29.010Z,100711.66
2023-05-17T02:21:00.477Z,100710.00
2023-05-17T02:21:31.916Z,100705.97
2023-05-17T02:22:03.308Z,100712.22
2023-05-17T02:22:34.761Z,100716.00
2023-05-17T02:23:06.204Z,100716.00
2023-05-17T02:23:37.737Z,100711.16
2023-05-17T02:24:09.159Z,100709.75
2023-05-17T02:24:40.686Z,100713.03
2023-05-17T02:25:12.096Z,100717.13
2023-05-17T02:25:43.505Z,100711.97
2023-05-17T02:26:14.901Z,100716.00
2023-05-17T02:26:46.305Z,100708.69
2023-05-17T02:27:17.740Z,100715.75
2023-05-17T02:27:49.178Z,100712.47
2023-05-17T02:28:20.562Z,100713.81
2023-05-17T02:28:51.987Z,100716.28
2023-05-17T02:29:23.434Z,100718.47
2023-05-17T02:29:54.926Z,100716.00
2023-05-17T02:30:26.366Z,100718.22
2023-05-17T02:30:57.852Z,100720.38
2023-05-17T02:31:29.329Z,100716.00
2023-05-17T02:32:00.715Z,100716.00
2023-05-17T02:32:32.302Z,100720.38
2023-05-17T02:33:04.025Z,100713.28
2023-05-17T02:33:35.652Z,100723.59
2023-05-17T02:34:07.240Z,100715.72
2023-05-17T02:34:38.692Z,100724.94
2023-05-17T02:35:10.166Z,100722.22
2023-05-17T02:35:41.553Z,100723.59
2023-05-17T02:36:12.982Z,100723.03
2023-05-17T02:36:44.418Z,100721.44
2023-05-17T02:37:15.824Z,100717.66
2023-05-17T02:37:47.241Z,100722.00
2023-05-17T02:38:18.699Z,100717.66
2023-05-17T02:38:50.095Z,100719.81
2023-05-17T02:39:21.452Z,100724.41
2023-05-17T02:39:52.841Z,100725.25
2023-05-17T02:40:24.329Z,100725.25
2023-05-17T02:40:55.723Z,100724.41
2023-05-17T02:41:27.255Z,100720.63
2023-05-17T02:41:58.671Z,100726.88
2023-05-17T02:42:30.130Z,100724.41
2023-05-17T02:43:01.597Z,100724.69
2023-05-17T02:43:33.026Z,100720.31
2023-05-17T02:44:04.434Z,100719.25
2023-05-17T02:44:35.933Z,100724.41
2023-05-17T02:45:07.502Z,100725.56
2023-05-17T02:45:39.053Z,100722.28
2023-05-17T02:46:10.467Z,100720.63
2023-05-17T02:46:41.928Z,100729.28
2023-05-17T02:47:13.417Z,100717.09
2023-05-17T02:47:45.034Z,100721.44
2023-05-17T02:48:16.508Z,100721.97
2023-05-17T02:48:48.000Z,100722.53
2023-05-17T02:49:19.383Z,100717.91
2023-05-17T02:49:50.767Z,100723.59
2023-05-17T02:50:22.148Z,100724.69
2023-05-17T02:50:53.606Z,100726.00
2023-05-17T02:51:25.035Z,100729.59
2023-05-17T02:51:56.440Z,100730.13
2023-05-17T02:52:27.843Z,100733.66
2023-05-17T02:52:59.297Z,100722.78
2023-05-17T02:53:30.758Z,100724.41
2023-05-17T02:54:02.160Z,100723.84
2023-05-17T02:54:33.568Z,100727.13
2023-05-17T02:55:04.971Z,100723.59
2023-05-17T02:55:36.453Z,100727.97
2023-05-17T02:56:07.957Z,100729.03
2023-05-17T02:56:39.411Z,100726.56
2023-05-17T02:57:10.844Z,100723.84
2023-05-17T02:57:42.283Z,100726.88
2023-05-17T02:58:13.782Z,100720.63
2023-05-17T02:58:45.170Z,100721.97
2023-05-17T02:59:16.767Z,100722.53
2023-05-17T02:59:48.151Z,100729.59
2023-05-17T03:00:19.557Z,100726.88
2023-05-17T03:00:50.924Z,100721.44
2023-05-17T03:01:22.370Z,100720.88
2023-05-17T03:01:53.797Z,100725.25
2023-05-17T03:02:25.320Z,100726.56
2023-05-17T03:02:56.875Z,100730.38
2023-05-17T03:03:28.508Z,100730.38
2023-05-17T03:04:00.243Z,100721.41
2023-05-17T03:04:31.785Z,100730.38
2023-05-17T03:05:03.273Z,100722.47
2023-05-17T03:05:34.665Z,100725.19
2023-05-17T03:06:06.123Z,100728.72
2023-05-17T03:06:37.793Z,100730.63
2023-05-17T03:07:09.240Z,100726.56
2023-05-17T03:07:40.649Z,100730.94
2023-05-17T03:08:12.087Z,100726.31
2023-05-17T03:08:43.522Z,100719.00
2023-05-17T03:09:14.964Z,100725.75
2023-05-17T03:09:46.340Z,100727.41
2023-05-17T03:10:17.742Z,100728.47
2023-05-17T03:10:49.189Z,100729.03
2023-05-17T03:11:20.615Z,100721.97
2023-05-17T03:11:52.064Z,100732.00
2023-05-17T03:12:23.497Z,100727.97
2023-05-17T03:12:54.906Z,100721.19
2023-05-17T03:13:26.388Z,100720.94
2023-05-17T03:13:57.860Z,100723.91
2023-05-17T03:14:29.266Z,100726.63
2023-05-17T03:15:00.649Z,100728.53
2023-05-17T03:15:32.041Z,100731.28
2023-05-17T03:16:03.491Z,100721.50
2023-05-17T03:16:34.912Z,100729.09
2023-05-17T03:17:06.444Z,100733.44
2023-05-17T03:17:37.932Z,100735.09
2023-05-17T03:18:09.812Z,100733.72
2023-05-17T03:18:41.489Z,100736.47
2023-05-17T03:19:13.145Z,100733.84
2023-05-17T03:19:44.680Z,100733.75
2023-05-17T03:20:16.145Z,100734.84
2023-05-17T03:20:47.537Z,100736.22
2023-05-17T03:21:18.944Z,100736.00
2023-05-17T03:21:50.374Z,100732.19
2023-05-17T03:22:21.863Z,100733.50
2023-05-17T03:22:53.259Z,100734.66
2023-05-17T03:23:24.678Z,100739.53
2023-05-17T03:23:56.104Z,100739.53
2023-05-17T03:24:27.632Z,100742.16
2023-05-17T03:24:59.032Z,100738.06
2023-05-17T03:25:30.659Z,100738.31
2023-05-17T03:26:02.247Z,100738.38
2023-05-17T03:26:33.698Z,100737.00
2023-05-17T03:27:05.129Z,100739.41
2023-05-17T03:27:36.823Z,100734.28
2023-05-17T03:28:08.413Z,100748.78
2023-05-17T03:28:41.509Z,100744.88
2023-05-17T03:29:12.974Z,100748.78
2023-05-17T03:29:44.389Z,100750.06
2023-05-17T03:30:15.860Z,100753.88
2023-05-17T03:30:47.335Z,100749.25
2023-05-17T03:31:18.789Z,100744.97
2023-05-17T03:31:50.233Z,100748.78
2023-05-17T03:32:21.699Z,100746.63
2023-05-17T03:32:53.245Z,100746.63
2023-05-17T03:33:24.969Z,100751.50
2023-05-17T03:33:56.527Z,100749.25
2023-05-17T03:34:28.004Z,100747.34
2023-05-17T03:34:59.474Z,100745.97
2023-05-17T03:35:31.082Z,100753.03
2023-05-17T03:36:02.658Z,100748.78
2023-05-17T03:36:34.042Z,100746.28
2023-05-17T03:37:05.535Z,100753.13
2023-05-17T03:37:37.041Z,100750.97
2023-05-17T03:38:08.595Z,100749.59
2023-05-17T03:38:39.990Z,100752.88
2023-05-17T03:39:11.534Z,100753.28
2023-05-17T03:39:42.974Z,100753.03
2023-05-17T03:40:14.415Z,100751.50
2023-05-17T03:40:45.795Z,100753.13
2023-05-17T03:41:17.247Z,100753.88
2023-05-17T03:41:48.623Z,100759.31
2023-05-17T03:42:20.046Z,100755.25
2023-05-17T03:42:51.583Z,100758.22
2023-05-17T03:43:22.992Z,100759.31
2023-05-17T03:43:54.431Z,100755.75
2023-05-17T03:44:25.893Z,100754.78
2023-05-17T03:44:57.322Z,100752.06
2023-05-17T03:45:28.912Z,100756.91
2023-05-17T03:46:00.424Z,100755.84
2023-05-17T03:46:31.930Z,100757.16
2023-05-17T03:47:03.336Z,100759.88
2023-05-17T03:47:34.897Z,100753.94
2023-05-17T03:48:06.422Z,100761.84
2023-05-17T03:48:37.948Z,100756.72
2023-05-17T03:49:09.519Z,100749.94
2023-05-17T03:49:41.202Z,100752.41
2023-05-17T03:50:12.705Z,100757.34
2023-05-17T03:50:44.119Z,100753.19
2023-05-17T03:51:15.571Z,100755.66
2023-05-17T03:51:46.944Z,100759.75
2023-05-17T03:52:18.349Z,100753.19
2023-05-17T03:52:49.765Z,100757.53
2023-05-17T03:53:21.353Z,100752.63
2023-05-17T03:53:52.801Z,100758.63
2023-05-17T03:54:24.230Z,100755.34
2023-05-17T03:54:55.627Z,100757.22
2023-05-17T03:55:27.183Z,100756.47
2023-05-17T03:55:58.747Z,100756.22
2023-05-17T03:56:30.204Z,100755.66
2023-05-17T03:57:01.588Z,100759.44
2023-05-17T03:57:32.973Z,100764.06
2023-05-17T03:58:04.354Z,100758.66
2023-05-17T03:58:35.846Z,100758.94
2023-05-17T03:59:07.305Z,100758.72
2023-05-17T03:59:38.753Z,100755.13
2023-05-17T04:00:10.218Z,100758.94
2023-05-17T04:00:41.648Z,100757.84
2023-05-17T04:01:13.046Z,100766.81
2023-05-17T04:01:44.454Z,100764.63
2023-05-17T04:02:15.881Z,100761.38
2023-05-17T04:02:47.348Z,100768.72
2023-05-17T04:03:20.322Z,100774.94
2023-05-17T04:03:52.024Z,100768.09
2023-05-17T04:04:23.478Z,100763.53
2023-05-17T04:04:55.002Z,100767.09
2023-05-17T04:05:26.704Z,100765.69
2023-05-17T04:05:58.277Z,100766.50
2023-05-17T04:06:29.811Z,100772.78
2023-05-17T04:07:01.192Z,100770.88
2023-05-17T04:07:32.602Z,100770.63
2023-05-17T04:08:04.041Z,100769.50
2023-05-17T04:08:35.454Z,100771.69
2023-05-17T04:09:06.950Z,100775.50
2023-05-17T04:09:38.355Z,100778.47
2023-05-17T04:10:09.714Z,100779.28
2023-05-17T04:10:41.133Z,100777.09
2023-05-17T04:11:12.751Z,100781.44
2023-05-17T04:11:44.201Z,100773.53
2023-05-17T04:12:15.643Z,100777.13
2023-05-17T04:12:47.051Z,100780.09
2023-05-17T04:13:18.457Z,100771.13
2023-05-17T04:13:49.873Z,100776.00
2023-05-17T04:14:21.320Z,100784.72
2023-05-17T04:14:52.694Z,100784.16
2023-05-17T04:15:24.128Z,100779.81
2023-05-17T04:15:55.565Z,100784.16
2023-05-17T04:16:26.940Z,100786.06
2023-05-17T04:16:58.429Z,100783.41
2023-05-17T04:17:29.913Z,100777.09
2023-05-17T04:18:01.478Z,100780.94
2023-05-17T04:18:33.099Z,100790.16
2023-05-17T04:19:04.718Z,100786.63
2023-05-17T04:19:36.367Z,100788.53
2023-05-17T04:20:07.814Z,100788.22
2023-05-17T04:20:39.208Z,100778.16
2023-05-17T04:21:10.656Z,100788.53
2023-05-17T04:21:42.269Z,100784.72
2023-05-17T04:22:13.721Z,100787.97
2023-05-17T04:22:45.162Z,100787.97
2023-05-17T04:23:16.588Z,100792.56
2023-05-17T04:23:48.034Z,100793.97
2023-05-17T04:24:19.454Z,100791.50
2023-05-17T04:24:50.933Z,100790.09
2023-05-17T04:25:22.334Z,100793.91
2023-05-17T04:25:53.731Z,100792.84
2023-05-17T04:26:25.154Z,100798.25
2023-05-17T04:26:56.849Z,100796.84
2023-05-17T04:27:28.302Z,100791.41
2023-05-17T04:27:59.747Z,100794.97
2023-05-17T04:28:31.174Z,100799.56
2023-05-17T04:29:02.574Z,100795.28
2023-05-17T04:29:34.098Z,100804.28
2023-05-17T04:30:05.571Z,100801.25
2023-05-17T04:30:37.056Z,100801.28
2023-05-17T04:31:08.711Z,100802.38
2023-05-17T04:31:40.179Z,100793.97
2023-05-17T04:32:11.612Z,100805.41
2023-05-17T04:32:43.237Z,100808.19
2023-05-17T04:33:15.009Z,100809.81
2023-05-17T04:33:46.500Z,100803.00
2023-05-17T04:34:18.009Z,100803.31
2023-05-17T04:34:49.446Z,100803.09
2023-05-17T04:35:20.932Z,100804.13
2023-05-17T04:35:52.392Z,100804.69
2023-05-17T04:36:23.795Z,100804.13
2023-05-17T04:36:55.223Z,100803.56
2023-05-17T04:37:26.659Z,100800.28
2023-05-17T04:37:58.047Z,100804.31
2023-05-17T04:38:29.486Z,100806.22
2023-05-17T04:39:00.961Z,100804.59
2023-05-17T04:39:32.375Z,100801.09
2023-05-17T04:40:03.793Z,100797.31
2023-05-17T04:40:35.359Z,100802.22
2023-05-17T04:41:06.831Z,100807.97
2023-05-17T04:41:38.299Z,100802.78
2023-05-17T04:42:09.673Z,100804.69
2023-05-17T04:42:41.062Z,100800.31
2023-05-17T04:43:12.505Z,100804.69
2023-05-17T04:43:44.007Z,100803.59
2023-05-17T04:44:15.421Z,100806.34
2023-05-17T04:44:46.880Z,100817.78
2023-05-17T04:45:18.301Z,100811.56
2023-05-17T04:45:49.810Z,100812.34
2023-05-17T04:46:21.208Z,100818.03
2023-05-17T04:46:52.587Z,100809.88
2023-05-17T04:47:24.049Z,100805.81
2023-05-17T04:47:55.639Z,100817.25
2023-05-17T04:48:27.234Z,100813.97
2023-05-17T04:48:58.847Z,100813.72
2023-05-17T04:49:30.376Z,100817.00
2023-05-17T04:50:01.858Z,100813.47
2023-05-17T04:50:33.301Z,100814.78
2023-05-17T04:51:04.825Z,100814.78
2023-05-17T04:51:36.356Z,100818.09
2023-05-17T04:52:07.772Z,100811.00
2023-05-17T04:52:39.232Z,100818.03
2023-05-17T04:53:10.678Z,100814.78
2023-05-17T04:53:42.083Z,100813.97
2023-05-17T04:54:13.536Z,100813.72
2023-05-17T04:54:44.982Z,100817.22
2023-05-17T04:55:16.435Z,100818.28
2023-05-17T04:55:47.839Z,100819.97
2023-05-17T04:56:19.355Z,100815.94
2023-05-17T04:56:50.742Z,100818.13
2023-05-17T04:57:22.172Z,100816.44
2023-05-17T04:57:53.600Z,100825.94
2023-05-17T04:58:25.114Z,100818.09
2023-05-17T04:58:56.572Z,100818.38
2023-05-17T04:59:28.063Z,100822.44
2023-05-17T04:59:59.471Z,100829.22
2023-05-17T05:00:30.916Z,100817.78
2023-05-17T05:01:02.325Z,100825.41
2023-05-17T05:01:33.845Z,100822.75
2023-05-17T05:02:05.304Z,100827.13
2023-05-17T05:02:36.823Z,100828.44
2023-05-17T05:03:08.365Z,100823.84
2023-05-17T05:03:39.876Z,100831.69
2023-05-17T05:04:11.491Z,100829.28
2023-05-17T05:04:43.123Z,100832.00
2023-05-17T05:05:14.784Z,100829.31
2023-05-17T05:05:46.285Z,100827.94
2023-05-17T05:06:17.785Z,100830.72
2023-05-17T05:06:49.229Z,100834.50
2023-05-17T05:07:20.644Z,100829.31
2023-05-17T05:07:52.049Z,100828.00
2023-05-17T05:08:23.482Z,100831.28
2023-05-17T05:08:54.989Z,100834.56
2023-05-17T05:09:26.418Z,100836.72
2023-05-17T05:09:57.835Z,100830.97
2023-05-17T05:10:30.468Z,100831.22
2023-05-17T05:11:02.015Z,100835.59
2023-05-17T05:11:33.432Z,100837.75
2023-05-17T05:12:04.876Z,100844.81
2023-05-17T05:12:36.315Z,100845.66
2023-05-17T05:13:07.717Z,100838.88
2023-05-17T05:13:39.184Z,100843.50
2023-05-17T05:14:10.573Z,100841.03
2023-05-17T05:14:42.064Z,100849.19
2023-05-17T05:15:13.484Z,100840.78
2023-05-17T05:15:44.890Z,100839.94
2023-05-17T05:16:16.403Z,100842.41
2023-05-17T05:16:47.792Z,100844.31
2023-05-17T05:17:20.413Z,100844.31
2023-05-17T05:17:51.948Z,100847.28
2023-05-17T05:18:23.604Z,100839.38
2023-05-17T05:18:55.250Z,100845.91
2023-05-17T05:19:26.897Z,100850.81
2023-05-17T05:19:58.492Z,100850.25
2023-05-17T05:20:29.982Z,100848.09
2023-05-17T05:21:01.417Z,100844.25
2023-05-17T05:21:32.952Z,100848.56
2023-05-17T05:22:04.426Z,100850.47
2023-05-17T05:22:35.947Z,100852.47
2023-05-17T05:23:07.382Z,100853.03
2023-05-17T05:23:38.806Z,100852.22
2023-05-17T05:24:10.223Z,100852.16
2023-05-17T05:24:41.840Z,100851.38
2023-05-17T05:25:13.220Z,100855.44
2023-05-17T05:25:44.658Z,100856.84
2023-05-17T05:26:16.100Z,100859.00
2023-05-17T05:26:47.657Z,100852.47
2023-05-17T05:27:19.051Z,100856.00
2023-05-17T05:27:50.453Z,100849.75
2023-05-17T05:28:21.927Z,100860.13
2023-05-17T05:28:53.358Z,100854.69
2023-05-17T05:29:24.715Z,100858.78
2023-05-17T05:29:56.191Z,100857.41
2023-05-17T05:30:27.641Z,100853.03
2023-05-17T05:30:59.113Z,100863.41
2023-05-17T05:31:30.575Z,100856.06
2023-05-17T05:32:02.056Z,100862.31
2023-05-17T05:32:33.660Z,100862.88
2023-05-17T05:33:05.394Z,100865.56
2023-05-17T05:33:36.897Z,100868.53
2023-05-17T05:34:08.734Z,100861.75
2023-05-17T05:34:40.268Z,100863.66
2023-05-17T05:35:11.749Z,100870.47
2023-05-17T05:35:43.121Z,100869.16
2023-05-17T05:36:14.585Z,100869.72
2023-05-17T05:36:46.021Z,100866.19
2023-05-17T05:37:18.713Z,100864.78
2023-05-17T05:37:50.285Z,100869.16
2023-05-17T05:38:21.865Z,100865.31
2023-05-17T05:38:53.282Z,100871.31
2023-05-17T05:39:24.706Z,100876.75
2023-05-17T05:39:56.111Z,100874.09
2023-05-17T05:40:27.924Z,100869.16
2023-05-17T05:40:59.774Z,100868.06
2023-05-17T05:41:31.163Z,100868.59
2023-05-17T05:42:02.567Z,100868.59
2023-05-17T05:42:34.011Z,100869.09
2023-05-17T05:43:05.553Z,100871.63
2023-05-17T05:43:36.941Z,100864.53
2023-05-17T05:44:08.432Z,100871.94
2023-05-17T05:44:39.865Z,100874.97
2023-05-17T05:45:11.221Z,100866.78
2023-05-17T05:45:42.574Z,100874.97
2023-05-17T05:46:14.029Z,100876.84
2023-05-17T05:46:45.417Z,100873.81
2023-05-17T05:47:16.857Z,100873.56
2023-05-17T05:47:48.460Z,100876.03
2023-05-17T05:48:20.161Z,100877.31
2023-05-17T05:48:51.798Z,100873.50
2023-05-17T05:49:23.318Z,100870.53
2023-05-17T05:49:54.701Z,100880.59
2023-05-17T05:50:26.192Z,100872.22
2023-05-17T05:50:57.644Z,100880.09
2023-05-17T05:51:29.055Z,100873.31
2023-05-17T05:52:00.557Z,100876.84
2023-05-17T05:52:31.949Z,100874.97
2023-05-17T05:53:17.171Z,100878.25
2023-05-17T05:53:49.894Z,100887.75
2023-05-17T05:54:21.427Z,100879.84
2023-05-17T05:54:52.880Z,100875.47
2023-05-17T05:55:24.474Z,100879.84
2023-05-17T05:55:55.920Z,100882.03
2023-05-17T05:56:27.430Z,100883.69
2023-05-17T05:56:58.848Z,100876.34
2023-05-17T05:57:30.217Z,100876.91
2023-05-17T05:58:01.636Z,100880.44
2023-05-17T05:58:33.054Z,100876.59
2023-05-17T05:59:04.474Z,100879.53
2023-05-17T05:59:35.929Z,100881.41